Viking Crusader — LE7883 — position and weather

sailwx.info

Track history (hours):
 
Tides and Currents Weather Stations Pressure Air Temp Water Temp Dewpoint Dewpoint Depression Visibility Wind Speed Wind Dir Waves Ship Positions

Viking Crusader

Last reported at 2018-Jun-17 10:14 UTC. Time now 2018-Jun-25 04:28 UTC.
Position N 43°23' E 004°56'.

Length 12 m.

Type: Sailing vessel. MMSI: 257938390.

Date/timePositionNaut miles runAvg speedWind from/ knotsBaromVisibWave heightAir tempDewpointWater temp
2018-Jun-17 10:14N 43°23' E 004°56'1 4.7
2018-Jun-17 09:56N 43°22' E 004°56'38 0.8
2018-Jun-15 10:25N 43°30' E 004°05'2 4.5
2018-Jun-15 09:59N 43°31' E 004°07'0 0.8
2018-Jun-15 09:24N 43°31' E 004°08'  
2018-Jun-12 09:38N 43°31' E 004°08'0 0.3
2018-Jun-12 09:31N 43°31' E 004°08'0 0.1
2018-Jun-12 09:00N 43°31' E 004°08'2 3.9
2018-Jun-12 08:30N 43°31' E 004°05'3 5.6
2018-Jun-12 08:00N 43°31' E 004°01'3 5.9
2018-Jun-12 07:30N 43°31' E 003°57'1 0.0
2018-Jun-11 12:04N 43°31' E 003°56'0 0.3
2018-Jun-11 12:00N 43°31' E 003°56'1 2.4
2018-Jun-11 11:30N 43°30' E 003°55'2 4.7
2018-Jun-11 10:59N 43°29' E 003°52'  
Track history (hours):
 
Tides and Currents Weather Stations Pressure Air Temp Water Temp Dewpoint Dewpoint Depression Visibility Wind Speed Wind Dir Waves Ship Positions

Viking Crusader

Last reported at 2018-Jun-17 10:14 UTC. Time now 2018-Jun-25 04:28 UTC.
Position N 43°23' E 004°56'.

Length 12 m.

Type: Sailing vessel. MMSI: 257938390.

Date/timePositionNaut miles runAvg speedWind from/ knotsBaromVisibWave heightAir tempDewpointWater temp
2018-Jun-17 10:14N 43°23' E 004°56'1 4.7
2018-Jun-17 09:56N 43°22' E 004°56'38 0.8
2018-Jun-15 10:25N 43°30' E 004°05'2 4.5
2018-Jun-15 09:59N 43°31' E 004°07'0 0.8
2018-Jun-15 09:24N 43°31' E 004°08'  
2018-Jun-12 09:38N 43°31' E 004°08'0 0.3
2018-Jun-12 09:31N 43°31' E 004°08'0 0.1
2018-Jun-12 09:00N 43°31' E 004°08'2 3.9
2018-Jun-12 08:30N 43°31' E 004°05'3 5.6
2018-Jun-12 08:00N 43°31' E 004°01'3 5.9
2018-Jun-12 07:30N 43°31' E 003°57'1 0.0
2018-Jun-11 12:04N 43°31' E 003°56'0 0.3
2018-Jun-11 12:00N 43°31' E 003°56'1 2.4
2018-Jun-11 11:30N 43°30' E 003°55'2 4.7
2018-Jun-11 10:59N 43°29' E 003°52'  

Dump ship's entire track history